KDAG

Barstow-Daggett Airport

Daggett, California, USA
METAR KDAG 231350Z AUTO 25018KT 10SM CLR 03/M02 A3008 RMK AO2 PK WND 26028/1316 SLP183 T00281022
Observed Flight Rules
Feb-23 @ 13:50 UTC (42 minutes ago) Visual Flight Rules
Wind Visibility Clouds
250° at 18 knots 10 miles
  • Clear skies
Temperatures Readings
Current 3°C / 37°F
Dewpoint -2°C / 28°F
Humidity 70%
Altimeter 30.08" Hg
Pressure 1018.3 hPa
Elevation 587
METAR KDAG 231350Z AUTO 25018KT 10SM CLR 03/M02 A3008 RMK AO2 PK WND 26028/1316 SLP183 T00281022
Observed Flight Rules
Feb-23 @ 13:50 UTC
(42 minutes ago)
VFR
Wind Visibility
250° at 18 knots 10 miles
Clouds
  • Clear skies
Temperature Dewpoint
3°C / 37°F -2°C / 28°F
Humidity Altimeter Pressure
70% 30.08" Hg 1018.3 hPa